Terminal Aerodrome Forecast
Issued by NWS Detroit/Pontiac, MI

Home | Current Version | Previous Version | Text Only | Print | Product List | Glossary On
Versions: 1 2 3 4 5 6 7 8 9 10 11 12 13 14 15 16 17 18 19 20 21 22 23 24 25 26
358
FTUS43 KDTX 250900 AAA
TAFDTW
TAF AMD
KDTW 250900Z 2509/2612 04007KT P6SM VCSH SCT015 OVC035
     FM251000 04007KT 5SM -RA BR BKN008 OVC015
     FM251200 05007KT 2SM -RA BR OVC005
     FM251600 06011KT 4SM -DZ BR OVC008
     FM252100 08007KT 4SM -DZ BR OVC012
     FM260400 08007KT 2SM BR OVC008=

USA.gov is the U.S. government's official web portal to all federal, state and local government web resources and services.